createdAt,value
2022-08-05T00:01:36.412Z,101246.72
2022-08-05T00:04:38.213Z,101250.22
2022-08-05T00:08:01.010Z,101243.56
2022-08-05T00:10:36.191Z,101253.13
2022-08-05T00:13:18.563Z,101247.13
2022-08-05T00:16:08.515Z,101247.00
2022-08-05T00:18:51.378Z,101247.91
2022-08-05T00:21:42.707Z,101253.00
2022-08-05T00:24:30.974Z,101249.47
2022-08-05T00:27:19.159Z,101252.13
2022-08-05T00:30:03.155Z,101251.84
2022-08-05T00:32:51.146Z,101250.84
2022-08-05T00:35:33.407Z,101246.31
2022-08-05T00:38:33.763Z,101242.84
2022-08-05T00:41:22.127Z,101243.72
2022-08-05T00:44:13.510Z,101243.84
2022-08-05T00:47:02.110Z,101237.78
2022-08-05T00:49:52.781Z,101241.38
2022-08-05T00:52:34.117Z,101249.31
2022-08-05T00:55:22.269Z,101249.59
2022-08-05T00:58:11.306Z,101253.19
2022-08-05T01:00:52.868Z,101257.44
2022-08-05T01:03:41.164Z,101256.59
2022-08-05T01:06:32.581Z,101253.00
2022-08-05T01:09:14.117Z,101257.59
2022-08-05T01:12:09.282Z,101260.84
2022-08-05T01:15:05.351Z,101265.28
2022-08-05T01:17:53.776Z,101265.28
2022-08-05T01:20:55.083Z,101258.50
2022-08-05T01:23:55.147Z,101262.09
2022-08-05T01:26:50.225Z,101262.16
2022-08-05T01:29:46.068Z,101269.66
2022-08-05T01:32:40.058Z,101257.44
2022-08-05T01:35:51.540Z,101269.59
2022-08-05T01:38:51.052Z,101264.16
2022-08-05T01:41:44.458Z,101265.69
2022-08-05T01:44:34.449Z,101275.88
2022-08-05T01:47:38.881Z,101274.25
2022-08-05T01:50:32.305Z,101271.91
2022-08-05T01:53:18.030Z,101274.66
2022-08-05T01:58:10.723Z,101279.13
2022-08-05T01:59:31.030Z,101268.91
2022-08-05T02:02:28.471Z,101280.66
2022-08-05T02:05:14.222Z,101285.94
2022-08-05T02:08:04.011Z,101285.22
2022-08-05T02:10:59.201Z,101284.47
2022-08-05T02:13:53.295Z,101282.88
2022-08-05T02:16:47.072Z,101280.19
2022-08-05T02:19:41.352Z,101287.44
2022-08-05T02:22:39.012Z,101284.19
2022-08-05T02:25:27.229Z,101285.16
2022-08-05T02:28:28.974Z,101286.25
2022-08-05T02:31:15.150Z,101291.44
2022-08-05T02:34:06.994Z,101288.06
2022-08-05T02:36:57.149Z,101290.66
2022-08-05T02:39:51.567Z,101290.84
2022-08-05T02:42:36.166Z,101288.16
2022-08-05T02:45:25.961Z,101290.88
2022-08-05T02:48:12.486Z,101289.22
2022-08-05T02:51:01.952Z,101298.13
2022-08-05T02:53:47.376Z,101299.88
2022-08-05T02:56:46.044Z,101295.66
2022-08-05T02:59:47.860Z,101298.38
2022-08-05T03:02:43.205Z,101293.38
2022-08-05T03:06:54.112Z,101286.34
2022-08-05T03:08:30.000Z,101289.19
2022-08-05T03:11:54.671Z,101282.25
2022-08-05T03:14:21.153Z,101289.34
2022-08-05T03:17:09.231Z,101285.88
2022-08-05T03:19:58.521Z,101277.28
2022-08-05T03:22:44.018Z,101286.09
2022-08-05T03:26:04.321Z,101288.84
2022-08-05T03:28:37.948Z,101286.28
2022-08-05T03:31:57.417Z,101287.16
2022-08-05T03:34:36.873Z,101287.97
2022-08-05T03:37:26.449Z,101293.31
2022-08-05T03:40:12.103Z,101291.53
2022-08-05T03:43:01.355Z,101284.63
2022-08-05T03:45:59.054Z,101282.06
2022-08-05T03:48:54.853Z,101280.41
2022-08-05T03:52:38.732Z,101281.34
2022-08-05T03:56:01.492Z,101289.19
2022-08-05T03:58:04.936Z,101291.06
2022-08-05T04:00:51.372Z,101280.63
2022-08-05T04:04:10.155Z,101288.44
2022-08-05T04:06:51.149Z,101290.16
2022-08-05T04:09:53.828Z,101300.59
2022-08-05T04:15:33.207Z,101296.44
2022-08-05T04:18:22.505Z,101293.78
2022-08-05T04:21:06.806Z,101295.50
2022-08-05T04:24:05.931Z,101289.63
2022-08-05T04:26:48.077Z,101287.16
2022-08-05T04:29:35.927Z,101291.47
2022-08-05T04:32:19.985Z,101294.19
2022-08-05T04:35:19.777Z,101292.50
2022-08-05T04:38:06.837Z,101296.88
2022-08-05T04:40:56.783Z,101296.09
2022-08-05T04:43:48.245Z,101293.63
2022-08-05T04:46:40.775Z,101295.22
2022-08-05T04:50:01.917Z,101302.25
2022-08-05T04:52:49.760Z,101305.78
2022-08-05T04:56:15.168Z,101301.31
2022-08-05T04:58:40.742Z,101296.09
2022-08-05T05:02:06.022Z,101301.22
2022-08-05T05:04:30.082Z,101310.03
2022-08-05T05:07:18.745Z,101305.66
2022-08-05T05:10:09.989Z,101312.44
2022-08-05T05:12:57.816Z,101314.97
2022-08-05T05:15:59.345Z,101315.63
2022-08-05T05:19:09.210Z,101317.16
2022-08-05T05:21:50.926Z,101323.50
2022-08-05T05:24:59.014Z,101327.59
2022-08-05T05:27:48.659Z,101326.53
2022-08-05T05:30:43.793Z,101326.34
2022-08-05T05:33:31.370Z,101326.22
2022-08-05T05:36:38.712Z,101319.91
2022-08-05T05:39:20.011Z,101328.41
2022-08-05T05:42:07.696Z,101326.38
2022-08-05T05:44:59.518Z,101328.75
2022-08-05T05:48:05.518Z,101332.03
2022-08-05T05:50:51.750Z,101331.53
2022-08-05T05:53:54.597Z,101333.69
2022-08-05T05:56:42.840Z,101341.16
2022-08-05T05:59:31.302Z,101348.34
2022-08-05T06:02:31.007Z,101348.88
2022-08-05T06:05:23.907Z,101345.63
2022-08-05T06:08:04.650Z,101352.06
2022-08-05T06:10:49.140Z,101361.06
2022-08-05T06:13:50.528Z,101356.19
2022-08-05T06:16:42.030Z,101360.41
2022-08-05T06:19:34.184Z,101352.28
2022-08-05T06:22:33.573Z,101365.94
2022-08-05T06:25:59.062Z,101366.19
2022-08-05T06:28:30.812Z,101361.06
2022-08-05T06:31:17.944Z,101366.03
2022-08-05T06:34:09.618Z,101371.88
2022-08-05T06:36:58.022Z,101375.13
2022-08-05T06:39:48.691Z,101376.63
2022-08-05T06:42:30.825Z,101385.38
2022-08-05T06:45:20.778Z,101383.44
2022-08-05T06:48:44.083Z,101387.53
2022-08-05T06:51:23.783Z,101386.72
2022-08-05T06:54:18.174Z,101381.47
2022-08-05T06:57:56.777Z,101374.78
2022-08-05T07:00:22.484Z,101375.75
2022-08-05T07:03:12.841Z,101379.84
2022-08-05T07:05:53.596Z,101376.41
2022-08-05T07:08:47.628Z,101385.53
2022-08-05T07:11:31.017Z,101383.75
2022-08-05T07:14:37.603Z,101389.31
2022-08-05T07:18:00.692Z,101397.91
2022-08-05T07:20:37.077Z,101409.50
2022-08-05T07:23:29.718Z,101402.94
2022-08-05T07:26:22.556Z,101407.00
2022-08-05T07:29:03.800Z,101418.53
2022-08-05T07:31:54.875Z,101412.06
2022-08-05T07:34:42.038Z,101420.72
2022-08-05T07:37:37.729Z,101413.44
2022-08-05T07:40:32.647Z,101428.88
2022-08-05T07:43:20.427Z,101421.69
2022-08-05T07:46:02.352Z,101433.22
2022-08-05T07:49:05.015Z,101430.72
2022-08-05T07:51:55.280Z,101436.47
2022-08-05T07:54:38.623Z,101441.78
2022-08-05T07:57:41.837Z,101445.66
2022-08-05T08:00:30.753Z,101443.56
2022-08-05T08:03:21.636Z,101443.28
2022-08-05T08:06:04.729Z,101450.78
2022-08-05T08:08:53.525Z,101454.19
2022-08-05T08:11:47.451Z,101453.63
2022-08-05T08:14:38.477Z,101459.56
2022-08-05T08:17:29.494Z,101458.34
2022-08-05T08:20:43.507Z,101471.56
2022-08-05T08:24:03.904Z,101456.81
2022-08-05T08:26:29.779Z,101471.22
2022-08-05T08:29:29.579Z,101469.97
2022-08-05T08:32:25.742Z,101480.09
2022-08-05T08:35:13.578Z,101481.06
2022-08-05T08:38:08.488Z,101483.34
2022-08-05T08:40:55.210Z,101480.06
2022-08-05T08:45:17.202Z,101490.66
2022-08-05T08:46:45.969Z,101496.94
2022-08-05T08:50:06.103Z,101488.75
2022-08-05T08:52:47.269Z,101497.41
2022-08-05T08:56:02.848Z,101494.63
2022-08-05T08:58:48.652Z,101500.72
2022-08-05T09:01:30.683Z,101499.31
2022-08-05T09:04:21.421Z,101517.59
2022-08-05T09:07:19.610Z,101503.94
2022-08-05T09:10:18.431Z,101519.78
2022-08-05T09:13:04.781Z,101508.78
2022-08-05T09:15:55.441Z,101511.41
2022-08-05T09:18:42.632Z,101520.44
2022-08-05T09:22:22.000Z,101520.56
2022-08-05T09:24:36.403Z,101525.16
2022-08-05T09:27:18.734Z,101530.88
2022-08-05T09:30:25.496Z,101521.44
2022-08-05T09:33:10.605Z,101530.69
2022-08-05T09:36:16.167Z,101529.72
2022-08-05T09:39:18.232Z,101525.53
2022-08-05T09:42:23.436Z,101532.22
2022-08-05T09:46:04.932Z,101520.31
2022-08-05T09:48:35.391Z,101534.03
2022-08-05T09:51:23.646Z,101535.28
2022-08-05T09:54:05.347Z,101546.03
2022-08-05T09:56:52.352Z,101542.59
2022-08-05T09:59:40.383Z,101551.28
2022-08-05T10:02:33.384Z,101553.50
2022-08-05T10:05:26.832Z,101545.59
2022-08-05T10:08:35.289Z,101551.56
2022-08-05T10:11:18.470Z,101561.72
2022-08-05T10:14:06.569Z,101566.56
2022-08-05T10:16:52.977Z,101564.84
2022-08-05T10:20:04.338Z,101567.44
2022-08-05T10:22:50.698Z,101570.00
2022-08-05T10:25:39.628Z,101565.69
2022-08-05T10:28:29.071Z,101565.47
2022-08-05T10:32:49.685Z,101571.63
2022-08-05T10:34:25.919Z,101572.63
2022-08-05T10:37:27.311Z,101576.75
2022-08-05T10:40:37.478Z,101583.72
2022-08-05T10:43:35.882Z,101577.38
2022-08-05T10:46:26.298Z,101595.13
2022-08-05T10:49:26.756Z,101582.34
2022-08-05T10:52:22.363Z,101603.09
2022-08-05T10:55:07.368Z,101595.75
2022-08-05T10:57:57.274Z,101604.94
2022-08-05T11:00:42.133Z,101612.53
2022-08-05T11:03:31.370Z,101623.19
2022-08-05T11:06:21.519Z,101601.06
2022-08-05T11:09:39.174Z,101615.66
2022-08-05T11:12:55.673Z,101610.56
2022-08-05T11:15:59.173Z,101613.59
2022-08-05T11:18:48.357Z,101613.25
2022-08-05T11:21:48.680Z,101612.53
2022-08-05T11:24:38.829Z,101614.22
2022-08-05T11:27:51.215Z,101605.88
2022-08-05T11:31:54.115Z,101610.72
2022-08-05T11:34:51.526Z,101605.81
2022-08-05T11:38:30.691Z,101601.34
2022-08-05T11:41:58.231Z,101619.97
2022-08-05T11:44:40.517Z,101611.56
2022-08-05T11:47:48.932Z,101613.75
2022-08-05T11:50:33.194Z,101612.88
2022-08-05T11:53:15.472Z,101628.81
2022-08-05T11:56:04.307Z,101617.00
2022-08-05T11:58:52.798Z,101627.72
2022-08-05T12:01:41.404Z,101635.81
2022-08-05T12:04:29.170Z,101638.44
2022-08-05T12:08:10.192Z,101645.91
2022-08-05T12:10:38.465Z,101651.69
2022-08-05T12:13:47.650Z,101642.19
2022-08-05T12:16:32.404Z,101645.09
2022-08-05T12:20:17.114Z,101637.25
2022-08-05T12:22:25.422Z,101630.31
2022-08-05T12:25:16.538Z,101647.34
2022-08-05T12:27:57.400Z,101637.53
2022-08-05T12:30:50.158Z,101643.75
2022-08-05T12:33:36.634Z,101645.41
2022-08-05T12:36:26.175Z,101642.81
2022-08-05T12:39:09.434Z,101640.72
2022-08-05T12:41:58.262Z,101633.34
2022-08-05T12:44:39.454Z,101649.81
2022-08-05T12:47:36.153Z,101643.34
2022-08-05T12:50:25.325Z,101653.47
2022-08-05T12:53:07.121Z,101649.06
2022-08-05T12:55:57.350Z,101635.94
2022-08-05T12:58:52.284Z,101642.56
2022-08-05T13:02:01.666Z,101653.53
2022-08-05T13:04:54.284Z,101662.28
2022-08-05T13:07:59.751Z,101648.94
2022-08-05T13:10:59.101Z,101662.34
2022-08-05T13:14:04.637Z,101653.78
2022-08-05T13:16:56.582Z,101673.28
2022-08-05T13:19:51.760Z,101647.88
2022-08-05T13:22:35.297Z,101658.72
2022-08-05T13:25:51.982Z,101661.72
2022-08-05T13:28:34.063Z,101655.47
2022-08-05T13:32:03.938Z,101662.84
2022-08-05T13:34:41.843Z,101662.25
2022-08-05T13:37:34.432Z,101665.63
2022-08-05T13:40:36.850Z,101667.19
2022-08-05T13:43:44.396Z,101664.63
2022-08-05T13:46:43.825Z,101663.19
2022-08-05T13:49:37.053Z,101657.97
2022-08-05T13:52:41.215Z,101657.63
2022-08-05T13:55:41.692Z,101663.06
2022-08-05T13:58:31.215Z,101665.25
2022-08-05T14:01:19.024Z,101665.41
2022-08-05T14:04:26.742Z,101674.03
2022-08-05T14:07:56.414Z,101664.16
2022-08-05T14:10:28.174Z,101669.34
2022-08-05T14:13:18.000Z,101659.81
2022-08-05T14:16:04.768Z,101677.81
2022-08-05T14:18:57.073Z,101679.69
2022-08-05T14:22:09.688Z,101674.78
2022-08-05T14:24:47.994Z,101668.47
2022-08-05T14:27:31.259Z,101670.16
2022-08-05T14:30:20.790Z,101675.94
2022-08-05T14:33:09.173Z,101671.09
2022-08-05T14:36:04.001Z,101680.00
2022-08-05T14:38:47.193Z,101673.91
2022-08-05T14:41:36.048Z,101674.22
2022-08-05T14:44:20.346Z,101673.63
2022-08-05T14:47:09.960Z,101680.94
2022-08-05T14:49:59.827Z,101678.44
2022-08-05T14:52:53.493Z,101678.81
2022-08-05T14:55:40.310Z,101665.41
2022-08-05T14:58:27.963Z,101678.44
2022-08-05T15:01:15.578Z,101674.53
2022-08-05T15:04:05.353Z,101677.97
2022-08-05T15:06:49.406Z,101678.97
2022-08-05T15:09:52.026Z,101661.25
2022-08-05T15:13:00.239Z,101668.00
2022-08-05T15:15:55.747Z,101674.94
2022-08-05T15:18:43.921Z,101677.53
2022-08-05T15:21:35.330Z,101671.19
2022-08-05T15:24:16.907Z,101672.13
2022-08-05T15:27:05.240Z,101677.97
2022-08-05T15:29:51.907Z,101670.66
2022-08-05T15:32:41.905Z,101668.00
2022-08-05T15:35:23.136Z,101662.88
2022-08-05T15:38:47.856Z,101657.13
2022-08-05T15:41:24.432Z,101663.34
2022-08-05T15:44:13.206Z,101659.53
2022-08-05T15:46:55.953Z,101663.53
2022-08-05T15:49:56.682Z,101655.81
2022-08-05T15:52:54.415Z,101652.94
2022-08-05T15:56:02.090Z,101659.75
2022-08-05T15:58:44.905Z,101668.97
2022-08-05T16:01:29.474Z,101658.91
2022-08-05T16:04:28.883Z,101667.28
2022-08-05T16:07:11.087Z,101660.50
2022-08-05T16:09:59.915Z,101664.34
2022-08-05T16:12:48.870Z,101653.06
2022-08-05T16:15:43.855Z,101660.50
2022-08-05T16:18:33.195Z,101643.22
2022-08-05T16:21:16.079Z,101652.69
2022-08-05T16:24:04.834Z,101658.59
2022-08-05T16:27:07.277Z,101654.41
2022-08-05T16:29:50.226Z,101667.88
2022-08-05T16:32:38.846Z,101663.63
2022-08-05T16:35:28.433Z,101660.56
2022-08-05T16:38:25.173Z,101670.31
2022-08-05T16:41:21.644Z,101665.53
2022-08-05T16:44:17.804Z,101672.59
2022-08-05T16:47:06.159Z,101669.78
2022-08-05T16:50:21.802Z,101672.44
2022-08-05T16:56:05.034Z,101665.78
2022-08-05T16:58:55.786Z,101675.00
2022-08-05T17:01:54.950Z,101671.06
2022-08-05T17:04:44.782Z,101673.69
2022-08-05T17:07:38.888Z,101672.00
2022-08-05T17:10:30.665Z,101664.84
2022-08-05T17:13:16.638Z,101675.25
2022-08-05T17:16:26.725Z,101663.50
2022-08-05T17:19:12.762Z,101677.63
2022-08-05T17:22:01.041Z,101678.69
2022-08-05T17:24:46.431Z,101677.38
2022-08-05T17:27:44.746Z,101672.03
2022-08-05T17:30:29.094Z,101673.59
2022-08-05T17:33:17.939Z,101669.09
2022-08-05T17:36:08.081Z,101672.25
2022-08-05T17:38:57.770Z,101666.00
2022-08-05T17:42:17.768Z,101679.63
2022-08-05T17:44:50.167Z,101663.44
2022-08-05T17:47:39.945Z,101669.91
2022-08-05T17:50:27.697Z,101676.53
2022-08-05T17:53:28.005Z,101683.94
2022-08-05T17:56:18.054Z,101684.00
2022-08-05T17:58:58.773Z,101684.25
2022-08-05T18:01:49.213Z,101689.34
2022-08-05T18:04:50.999Z,101685.72
2022-08-05T18:07:42.445Z,101685.34
2022-08-05T18:10:24.703Z,101689.19
2022-08-05T18:13:13.922Z,101675.97
2022-08-05T18:15:54.708Z,101683.69
2022-08-05T18:18:48.078Z,101686.94
2022-08-05T18:22:08.226Z,101692.88
2022-08-05T18:24:40.903Z,101686.50
2022-08-05T18:27:21.670Z,101691.34
2022-08-05T18:30:10.673Z,101695.06
2022-08-05T18:33:00.295Z,101695.16
2022-08-05T18:36:03.804Z,101691.44
2022-08-05T18:38:49.868Z,101705.59
2022-08-05T18:41:58.535Z,101706.09
2022-08-05T18:44:49.229Z,101710.53
2022-08-05T18:47:44.619Z,101705.00
2022-08-05T18:50:47.680Z,101711.28
2022-08-05T18:53:45.956Z,101716.03
2022-08-05T18:56:40.633Z,101716.44
2022-08-05T18:59:43.808Z,101713.63
2022-08-05T19:02:24.644Z,101712.75
2022-08-05T19:06:05.736Z,101713.75
2022-08-05T19:08:18.828Z,101712.69
2022-08-05T19:11:07.263Z,101710.94
2022-08-05T19:13:50.741Z,101719.28
2022-08-05T19:16:51.665Z,101721.59
2022-08-05T19:19:39.578Z,101722.91
2022-08-05T19:22:34.605Z,101722.38
2022-08-05T19:25:30.336Z,101727.88
2022-08-05T19:28:27.791Z,101722.34
2022-08-05T19:31:21.353Z,101731.47
2022-08-05T19:34:03.663Z,101726.59
2022-08-05T19:36:45.570Z,101724.53
2022-08-05T19:39:46.009Z,101725.63
2022-08-05T19:42:39.093Z,101732.34
2022-08-05T19:45:21.551Z,101737.19
2022-08-05T19:48:15.573Z,101747.16
2022-08-05T19:51:10.540Z,101745.72
2022-08-05T19:54:26.635Z,101745.97
2022-08-05T19:57:13.862Z,101747.03
2022-08-05T20:00:06.578Z,101744.69
2022-08-05T20:02:48.914Z,101753.59
2022-08-05T20:05:42.913Z,101750.41
2022-08-05T20:08:24.887Z,101755.72
2022-08-05T20:11:12.532Z,101759.53
2022-08-05T20:14:12.021Z,101760.53
2022-08-05T20:17:12.495Z,101758.13
2022-08-05T20:20:09.206Z,101765.38
2022-08-05T20:22:52.514Z,101765.53
2022-08-05T20:25:40.150Z,101773.66
2022-08-05T20:28:28.502Z,101777.41
2022-08-05T20:31:16.922Z,101783.69
2022-08-05T20:34:04.517Z,101797.56
2022-08-05T20:36:46.317Z,101798.63
2022-08-05T20:39:37.569Z,101810.94
2022-08-05T20:42:25.867Z,101810.31
2022-08-05T20:45:10.529Z,101824.28
2022-08-05T20:47:59.461Z,101826.91
2022-08-05T20:50:47.719Z,101826.78
2022-08-05T20:53:40.964Z,101827.69
2022-08-05T20:56:28.064Z,101828.00
2022-08-05T20:59:19.313Z,101830.06
2022-08-05T21:02:08.766Z,101824.19
2022-08-05T21:04:57.441Z,101821.94
2022-08-05T21:07:50.841Z,101829.13
2022-08-05T21:10:41.460Z,101825.16
2022-08-05T21:13:46.973Z,101824.53
2022-08-05T21:16:48.430Z,101827.50
2022-08-05T21:19:47.251Z,101831.88
2022-08-05T21:22:31.420Z,101830.13
2022-08-05T21:25:13.319Z,101828.38
2022-08-05T21:28:01.419Z,101829.25
2022-08-05T21:30:51.632Z,101825.88
2022-08-05T21:33:36.879Z,101829.25
2022-08-05T21:36:29.913Z,101837.31
2022-08-05T21:39:26.987Z,101838.38
2022-08-05T21:42:31.140Z,101838.59
2022-08-05T21:45:25.165Z,101844.06
2022-08-05T21:48:27.614Z,101832.84
2022-08-05T21:52:16.488Z,101845.91
2022-08-05T21:54:30.737Z,101833.72
2022-08-05T21:57:31.665Z,101839.94
2022-08-05T22:00:23.497Z,101836.56
2022-08-05T22:03:15.104Z,101841.22
2022-08-05T22:05:58.375Z,101847.56
2022-08-05T22:08:46.341Z,101851.09
2022-08-05T22:11:34.741Z,101846.69
2022-08-05T22:14:35.840Z,101839.81
2022-08-05T22:17:25.377Z,101854.72
2022-08-05T22:20:13.390Z,101844.56
2022-08-05T22:23:22.346Z,101845.94
2022-08-05T22:26:39.738Z,101841.94
2022-08-05T22:29:26.304Z,101849.75
2022-08-05T22:32:18.317Z,101849.63
2022-08-05T22:35:06.329Z,101845.16
2022-08-05T22:37:59.104Z,101851.19
2022-08-05T22:40:41.311Z,101844.28
2022-08-05T22:43:37.311Z,101846.84
2022-08-05T22:46:23.564Z,101843.31
2022-08-05T22:50:17.549Z,101852.06
2022-08-05T22:52:32.619Z,101857.41
2022-08-05T22:55:24.483Z,101854.00
2022-08-05T22:58:07.281Z,101847.91
2022-08-05T23:00:59.488Z,101857.50
2022-08-05T23:03:58.896Z,101847.13
2022-08-05T23:06:47.826Z,101849.00
2022-08-05T23:09:57.494Z,101850.84
2022-08-05T23:12:39.284Z,101854.41
2022-08-05T23:15:20.454Z,101855.25
2022-08-05T23:18:11.731Z,101854.47
2022-08-05T23:20:57.457Z,101864.13
2022-08-05T23:23:46.257Z,101860.69
2022-08-05T23:26:27.490Z,101864.16
2022-08-05T23:29:17.269Z,101862.50
2022-08-05T23:32:07.230Z,101860.91
2022-08-05T23:34:58.382Z,101866.09
2022-08-05T23:37:40.458Z,101865.28
2022-08-05T23:40:32.262Z,101865.34
2022-08-05T23:43:25.799Z,101867.09
2022-08-05T23:46:25.205Z,101860.22
2022-08-05T23:49:16.074Z,101856.78
2022-08-05T23:52:28.294Z,101862.13
2022-08-05T23:55:18.263Z,101855.38
2022-08-05T23:58:06.181Z,101851.09
